sensor_id;sensor_type;location;lat;lon;timestamp;temperature;humidity
39931;DHT22;26635;-35.248;149.138;2022-09-09T00:07:46;12.50;98.70
39931;DHT22;26635;-35.248;149.138;2022-09-09T00:16:15;12.50;98.00
39931;DHT22;26635;-35.248;149.138;2022-09-09T00:24:44;12.30;96.70
39931;DHT22;26635;-35.248;149.138;2022-09-09T00:27:35;12.20;96.40
39931;DHT22;26635;-35.248;149.138;2022-09-09T00:30:24;12.20;96.90
39931;DHT22;26635;-35.248;149.138;2022-09-09T00:32:55;12.10;97.50
39931;DHT22;26635;-35.248;149.138;2022-09-09T00:35:58;12.20;97.90
39931;DHT22;26635;-35.248;149.138;2022-09-09T00:38:37;12.20;97.90
39931;DHT22;26635;-35.248;149.138;2022-09-09T00:44:36;12.30;98.20
39931;DHT22;26635;-35.248;149.138;2022-09-09T00:50:56;12.50;98.20
39931;DHT22;26635;-35.248;149.138;2022-09-09T00:54:27;12.60;98.20
39931;DHT22;26635;-35.248;149.138;2022-09-09T00:59:50;12.80;98.10
39931;DHT22;26635;-35.248;149.138;2022-09-09T01:02:28;12.90;98.10
39931;DHT22;26635;-35.248;149.138;2022-09-09T01:05:07;13.10;98.10
39931;DHT22;26635;-35.248;149.138;2022-09-09T01:07:45;13.20;97.70
39931;DHT22;26635;-35.248;149.138;2022-09-09T01:10:51;13.20;97.50
39931;DHT22;26635;-35.248;149.138;2022-09-09T01:13:27;13.30;96.80
39931;DHT22;26635;-35.248;149.138;2022-09-09T01:16:01;13.30;96.50
39931;DHT22;26635;-35.248;149.138;2022-09-09T01:18:46;13.30;96.20
39931;DHT22;26635;-35.248;149.138;2022-09-09T01:24:20;13.40;95.70
39931;DHT22;26635;-35.248;149.138;2022-09-09T01:26:56;13.40;95.70
39931;DHT22;26635;-35.248;149.138;2022-09-09T01:29:28;13.50;95.80
39931;DHT22;26635;-35.248;149.138;2022-09-09T01:32:01;13.50;95.70
39931;DHT22;26635;-35.248;149.138;2022-09-09T01:34:36;13.50;95.30
39931;DHT22;26635;-35.248;149.138;2022-09-09T01:37:11;13.50;94.80
39931;DHT22;26635;-35.248;149.138;2022-09-09T01:39:43;13.50;94.90
39931;DHT22;26635;-35.248;149.138;2022-09-09T01:42:23;13.40;94.50
39931;DHT22;26635;-35.248;149.138;2022-09-09T01:44:55;13.40;95.30
39931;DHT22;26635;-35.248;149.138;2022-09-09T01:47:25;13.30;95.30
39931;DHT22;26635;-35.248;149.138;2022-09-09T02:00:09;13.40;95.70
39931;DHT22;26635;-35.248;149.138;2022-09-09T02:06:14;13.40;95.90
39931;DHT22;26635;-35.248;149.138;2022-09-09T02:08:57;13.50;95.50
39931;DHT22;26635;-35.248;149.138;2022-09-09T02:11:31;13.60;95.80
39931;DHT22;26635;-35.248;149.138;2022-09-09T02:14:08;13.70;95.30
39931;DHT22;26635;-35.248;149.138;2022-09-09T02:17:03;13.80;95.00
39931;DHT22;26635;-35.248;149.138;2022-09-09T02:19:49;13.90;95.20
39931;DHT22;26635;-35.248;149.138;2022-09-09T02:22:24;14.10;95.10
39931;DHT22;26635;-35.248;149.138;2022-09-09T02:24:58;14.20;94.20
39931;DHT22;26635;-35.248;149.138;2022-09-09T02:27:30;14.30;94.10
39931;DHT22;26635;-35.248;149.138;2022-09-09T02:30:03;14.30;94.30
39931;DHT22;26635;-35.248;149.138;2022-09-09T02:32:36;14.40;93.70
39931;DHT22;26635;-35.248;149.138;2022-09-09T02:35:13;14.40;93.10
39931;DHT22;26635;-35.248;149.138;2022-09-09T02:37:45;14.50;93.60
39931;DHT22;26635;-35.248;149.138;2022-09-09T02:40:19;14.60;93.30
39931;DHT22;26635;-35.248;149.138;2022-09-09T02:42:50;14.70;93.70
39931;DHT22;26635;-35.248;149.138;2022-09-09T02:45:24;14.80;92.60
39931;DHT22;26635;-35.248;149.138;2022-09-09T02:48:09;14.80;92.60
39931;DHT22;26635;-35.248;149.138;2022-09-09T02:53:40;14.80;92.40
39931;DHT22;26635;-35.248;149.138;2022-09-09T02:56:17;14.90;92.20
39931;DHT22;26635;-35.248;149.138;2022-09-09T02:58:50;14.90;91.90
39931;DHT22;26635;-35.248;149.138;2022-09-09T03:01:22;14.90;91.90
39931;DHT22;26635;-35.248;149.138;2022-09-09T03:03:55;14.90;91.90
39931;DHT22;26635;-35.248;149.138;2022-09-09T03:06:25;14.90;92.40
39931;DHT22;26635;-35.248;149.138;2022-09-09T03:08:56;14.90;91.90
39931;DHT22;26635;-35.248;149.138;2022-09-09T03:11:28;14.80;91.80
39931;DHT22;26635;-35.248;149.138;2022-09-09T03:13:59;14.80;92.30
39931;DHT22;26635;-35.248;149.138;2022-09-09T03:16:30;14.90;92.20
39931;DHT22;26635;-35.248;149.138;2022-09-09T03:19:01;14.90;91.90
39931;DHT22;26635;-35.248;149.138;2022-09-09T03:21:31;15.00;91.10
39931;DHT22;26635;-35.248;149.138;2022-09-09T03:24:03;15.00;90.80
39931;DHT22;26635;-35.248;149.138;2022-09-09T03:26:33;15.00;90.90
39931;DHT22;26635;-35.248;149.138;2022-09-09T03:29:04;14.90;91.10
39931;DHT22;26635;-35.248;149.138;2022-09-09T03:31:38;14.90;91.20
39931;DHT22;26635;-35.248;149.138;2022-09-09T03:34:09;14.90;91.00
39931;DHT22;26635;-35.248;149.138;2022-09-09T03:36:39;15.00;91.00
39931;DHT22;26635;-35.248;149.138;2022-09-09T03:39:10;15.00;91.00
39931;DHT22;26635;-35.248;149.138;2022-09-09T03:41:40;15.00;91.20
39931;DHT22;26635;-35.248;149.138;2022-09-09T03:44:11;15.00;90.90
39931;DHT22;26635;-35.248;149.138;2022-09-09T03:46:41;15.00;91.20
39931;DHT22;26635;-35.248;149.138;2022-09-09T03:49:11;15.00;91.40
39931;DHT22;26635;-35.248;149.138;2022-09-09T03:51:42;15.10;91.10
39931;DHT22;26635;-35.248;149.138;2022-09-09T03:54:12;15.10;91.00
39931;DHT22;26635;-35.248;149.138;2022-09-09T03:56:42;15.20;91.60
39931;DHT22;26635;-35.248;149.138;2022-09-09T03:59:13;15.20;90.60
39931;DHT22;26635;-35.248;149.138;2022-09-09T04:01:44;15.20;91.20
39931;DHT22;26635;-35.248;149.138;2022-09-09T04:04:16;15.20;90.60
39931;DHT22;26635;-35.248;149.138;2022-09-09T04:06:47;15.20;89.00
39931;DHT22;26635;-35.248;149.138;2022-09-09T04:09:18;15.20;88.60
39931;DHT22;26635;-35.248;149.138;2022-09-09T04:11:49;15.20;89.30
39931;DHT22;26635;-35.248;149.138;2022-09-09T04:14:21;15.10;89.50
39931;DHT22;26635;-35.248;149.138;2022-09-09T04:16:52;15.10;89.60
39931;DHT22;26635;-35.248;149.138;2022-09-09T04:19:25;15.10;90.20
39931;DHT22;26635;-35.248;149.138;2022-09-09T04:21:55;15.10;90.20
39931;DHT22;26635;-35.248;149.138;2022-09-09T04:24:26;15.10;90.20
39931;DHT22;26635;-35.248;149.138;2022-09-09T04:26:56;15.10;90.00
39931;DHT22;26635;-35.248;149.138;2022-09-09T04:29:27;15.10;90.20
39931;DHT22;26635;-35.248;149.138;2022-09-09T04:31:57;15.00;89.70
39931;DHT22;26635;-35.248;149.138;2022-09-09T04:34:28;15.00;88.30
39931;DHT22;26635;-35.248;149.138;2022-09-09T04:37:00;14.90;90.00
39931;DHT22;26635;-35.248;149.138;2022-09-09T04:39:30;14.80;90.20
39931;DHT22;26635;-35.248;149.138;2022-09-09T04:42:00;14.80;90.40
39931;DHT22;26635;-35.248;149.138;2022-09-09T04:44:31;14.70;89.90
39931;DHT22;26635;-35.248;149.138;2022-09-09T04:47:02;14.60;90.40
39931;DHT22;26635;-35.248;149.138;2022-09-09T04:49:32;14.50;90.10
39931;DHT22;26635;-35.248;149.138;2022-09-09T04:52:03;14.50;90.60
39931;DHT22;26635;-35.248;149.138;2022-09-09T04:54:33;14.40;90.80
39931;DHT22;26635;-35.248;149.138;2022-09-09T04:57:04;14.40;91.50
39931;DHT22;26635;-35.248;149.138;2022-09-09T04:59:34;14.20;91.90
39931;DHT22;26635;-35.248;149.138;2022-09-09T05:02:05;14.20;92.10
39931;DHT22;26635;-35.248;149.138;2022-09-09T05:04:35;14.00;91.50
39931;DHT22;26635;-35.248;149.138;2022-09-09T05:07:05;13.90;90.90
39931;DHT22;26635;-35.248;149.138;2022-09-09T05:09:37;13.80;91.80
39931;DHT22;26635;-35.248;149.138;2022-09-09T05:12:07;13.70;92.30
39931;DHT22;26635;-35.248;149.138;2022-09-09T05:14:37;13.60;92.80
39931;DHT22;26635;-35.248;149.138;2022-09-09T05:17:08;13.60;92.60
39931;DHT22;26635;-35.248;149.138;2022-09-09T05:19:39;13.70;92.70
39931;DHT22;26635;-35.248;149.138;2022-09-09T05:22:10;13.70;92.60
39931;DHT22;26635;-35.248;149.138;2022-09-09T05:24:45;13.70;92.50
39931;DHT22;26635;-35.248;149.138;2022-09-09T05:27:16;13.80;92.60
39931;DHT22;26635;-35.248;149.138;2022-09-09T05:29:48;13.90;91.90
39931;DHT22;26635;-35.248;149.138;2022-09-09T05:32:19;13.90;92.10
39931;DHT22;26635;-35.248;149.138;2022-09-09T05:34:49;13.90;91.50
39931;DHT22;26635;-35.248;149.138;2022-09-09T05:37:21;13.90;91.50
39931;DHT22;26635;-35.248;149.138;2022-09-09T05:39:53;14.00;91.60
39931;DHT22;26635;-35.248;149.138;2022-09-09T05:42:23;14.10;92.20
39931;DHT22;26635;-35.248;149.138;2022-09-09T05:44:55;14.20;91.60
39931;DHT22;26635;-35.248;149.138;2022-09-09T05:47:29;14.30;91.60
39931;DHT22;26635;-35.248;149.138;2022-09-09T05:50:01;14.30;91.20
39931;DHT22;26635;-35.248;149.138;2022-09-09T05:52:33;14.40;91.30
39931;DHT22;26635;-35.248;149.138;2022-09-09T05:55:05;14.40;91.40
39931;DHT22;26635;-35.248;149.138;2022-09-09T05:57:35;14.40;91.30
39931;DHT22;26635;-35.248;149.138;2022-09-09T06:00:07;14.40;91.60
39931;DHT22;26635;-35.248;149.138;2022-09-09T06:02:37;14.40;92.00
39931;DHT22;26635;-35.248;149.138;2022-09-09T06:05:10;14.40;92.20
39931;DHT22;26635;-35.248;149.138;2022-09-09T06:07:41;14.50;92.20
39931;DHT22;26635;-35.248;149.138;2022-09-09T06:10:14;14.50;92.10
39931;DHT22;26635;-35.248;149.138;2022-09-09T06:12:44;14.60;91.80
39931;DHT22;26635;-35.248;149.138;2022-09-09T06:15:15;14.60;91.50
39931;DHT22;26635;-35.248;149.138;2022-09-09T06:17:45;14.50;91.30
39931;DHT22;26635;-35.248;149.138;2022-09-09T06:20:15;14.50;91.10
39931;DHT22;26635;-35.248;149.138;2022-09-09T06:22:47;14.50;90.80
39931;DHT22;26635;-35.248;149.138;2022-09-09T06:25:20;14.50;90.90
39931;DHT22;26635;-35.248;149.138;2022-09-09T06:27:51;14.50;91.10
39931;DHT22;26635;-35.248;149.138;2022-09-09T06:30:21;14.40;90.00
39931;DHT22;26635;-35.248;149.138;2022-09-09T06:32:51;14.40;89.30
39931;DHT22;26635;-35.248;149.138;2022-09-09T06:35:21;14.40;89.10
39931;DHT22;26635;-35.248;149.138;2022-09-09T06:37:51;14.30;88.60
39931;DHT22;26635;-35.248;149.138;2022-09-09T06:40:22;14.30;88.40
39931;DHT22;26635;-35.248;149.138;2022-09-09T06:42:53;14.30;88.90
39931;DHT22;26635;-35.248;149.138;2022-09-09T06:45:23;14.20;87.90
39931;DHT22;26635;-35.248;149.138;2022-09-09T06:47:55;14.20;89.30
39931;DHT22;26635;-35.248;149.138;2022-09-09T06:50:26;14.10;88.20
39931;DHT22;26635;-35.248;149.138;2022-09-09T06:52:56;14.10;88.50
39931;DHT22;26635;-35.248;149.138;2022-09-09T06:55:26;14.10;88.20
39931;DHT22;26635;-35.248;149.138;2022-09-09T06:57:57;14.10;89.20
39931;DHT22;26635;-35.248;149.138;2022-09-09T07:00:27;14.10;89.40
39931;DHT22;26635;-35.248;149.138;2022-09-09T07:02:58;14.00;89.50
39931;DHT22;26635;-35.248;149.138;2022-09-09T07:05:28;13.90;90.20
39931;DHT22;26635;-35.248;149.138;2022-09-09T07:07:59;13.90;90.30
39931;DHT22;26635;-35.248;149.138;2022-09-09T07:10:29;13.90;90.60
39931;DHT22;26635;-35.248;149.138;2022-09-09T07:13:00;13.80;90.60
39931;DHT22;26635;-35.248;149.138;2022-09-09T07:15:31;13.80;90.50
39931;DHT22;26635;-35.248;149.138;2022-09-09T07:18:03;13.80;90.70
39931;DHT22;26635;-35.248;149.138;2022-09-09T07:20:34;13.70;90.80
39931;DHT22;26635;-35.248;149.138;2022-09-09T07:23:04;13.60;90.70
39931;DHT22;26635;-35.248;149.138;2022-09-09T07:25:35;13.60;91.00
39931;DHT22;26635;-35.248;149.138;2022-09-09T07:28:06;13.50;91.00
39931;DHT22;26635;-35.248;149.138;2022-09-09T07:30:38;13.50;91.30
39931;DHT22;26635;-35.248;149.138;2022-09-09T07:33:11;13.40;91.10
39931;DHT22;26635;-35.248;149.138;2022-09-09T07:35:42;13.40;91.40
39931;DHT22;26635;-35.248;149.138;2022-09-09T07:38:14;13.30;92.10
39931;DHT22;26635;-35.248;149.138;2022-09-09T07:40:47;13.20;92.20
39931;DHT22;26635;-35.248;149.138;2022-09-09T07:43:17;13.20;92.40
39931;DHT22;26635;-35.248;149.138;2022-09-09T07:45:48;13.10;92.40
39931;DHT22;26635;-35.248;149.138;2022-09-09T07:48:27;13.10;92.10
39931;DHT22;26635;-35.248;149.138;2022-09-09T07:51:09;13.00;92.80
39931;DHT22;26635;-35.248;149.138;2022-09-09T07:53:41;13.00;93.20
39931;DHT22;26635;-35.248;149.138;2022-09-09T07:56:13;13.00;92.90
39931;DHT22;26635;-35.248;149.138;2022-09-09T07:58:45;12.90;92.90
39931;DHT22;26635;-35.248;149.138;2022-09-09T08:01:27;12.80;92.80
39931;DHT22;26635;-35.248;149.138;2022-09-09T08:04:00;12.70;92.70
39931;DHT22;26635;-35.248;149.138;2022-09-09T08:06:35;12.60;92.70
39931;DHT22;26635;-35.248;149.138;2022-09-09T08:09:07;12.60;93.30
39931;DHT22;26635;-35.248;149.138;2022-09-09T08:11:39;12.50;93.50
39931;DHT22;26635;-35.248;149.138;2022-09-09T08:14:11;12.40;93.60
39931;DHT22;26635;-35.248;149.138;2022-09-09T08:16:44;12.30;93.80
39931;DHT22;26635;-35.248;149.138;2022-09-09T08:19:21;12.20;94.30
39931;DHT22;26635;-35.248;149.138;2022-09-09T08:21:52;12.20;94.60
39931;DHT22;26635;-35.248;149.138;2022-09-09T08:24:23;12.10;95.00
39931;DHT22;26635;-35.248;149.138;2022-09-09T08:26:53;12.10;93.20
39931;DHT22;26635;-35.248;149.138;2022-09-09T08:29:25;12.10;92.60
39931;DHT22;26635;-35.248;149.138;2022-09-09T08:31:57;12.10;93.30
39931;DHT22;26635;-35.248;149.138;2022-09-09T08:34:27;12.10;93.00
39931;DHT22;26635;-35.248;149.138;2022-09-09T08:36:59;12.00;92.90
39931;DHT22;26635;-35.248;149.138;2022-09-09T08:39:30;12.00;93.10
39931;DHT22;26635;-35.248;149.138;2022-09-09T08:50:35;11.70;95.00
39931;DHT22;26635;-35.248;149.138;2022-09-09T08:55:48;11.60;95.60
39931;DHT22;26635;-35.248;149.138;2022-09-09T08:58:21;11.70;95.50
39931;DHT22;26635;-35.248;149.138;2022-09-09T09:01:14;11.60;95.10
39931;DHT22;26635;-35.248;149.138;2022-09-09T09:04:07;11.60;95.30
39931;DHT22;26635;-35.248;149.138;2022-09-09T09:12:52;11.40;95.60
39931;DHT22;26635;-35.248;149.138;2022-09-09T09:15:27;11.40;95.50
39931;DHT22;26635;-35.248;149.138;2022-09-09T09:18:00;11.40;95.50
39931;DHT22;26635;-35.248;149.138;2022-09-09T09:23:26;11.40;96.10
39931;DHT22;26635;-35.248;149.138;2022-09-09T09:26:00;11.30;96.60
39931;DHT22;26635;-35.248;149.138;2022-09-09T09:28:33;11.40;96.70
39931;DHT22;26635;-35.248;149.138;2022-09-09T09:31:12;11.40;96.30
39931;DHT22;26635;-35.248;149.138;2022-09-09T09:33:50;11.40;96.50
39931;DHT22;26635;-35.248;149.138;2022-09-09T09:36:33;11.30;95.40
39931;DHT22;26635;-35.248;149.138;2022-09-09T09:39:04;11.20;95.30
39931;DHT22;26635;-35.248;149.138;2022-09-09T09:41:55;11.10;95.70
39931;DHT22;26635;-35.248;149.138;2022-09-09T09:44:32;11.10;95.90
39931;DHT22;26635;-35.248;149.138;2022-09-09T09:47:12;11.00;96.30
39931;DHT22;26635;-35.248;149.138;2022-09-09T09:49:58;11.00;96.30
39931;DHT22;26635;-35.248;149.138;2022-09-09T09:52:31;11.00;96.50
39931;DHT22;26635;-35.248;149.138;2022-09-09T09:55:05;10.90;96.40
39931;DHT22;26635;-35.248;149.138;2022-09-09T09:57:44;10.90;96.70
39931;DHT22;26635;-35.248;149.138;2022-09-09T10:00:17;10.90;97.10
39931;DHT22;26635;-35.248;149.138;2022-09-09T10:02:49;10.80;97.20
39931;DHT22;26635;-35.248;149.138;2022-09-09T10:05:29;10.80;97.20
39931;DHT22;26635;-35.248;149.138;2022-09-09T10:08:15;10.80;97.20
39931;DHT22;26635;-35.248;149.138;2022-09-09T10:19:34;10.80;97.90
39931;DHT22;26635;-35.248;149.138;2022-09-09T10:22:27;10.80;97.80
39931;DHT22;26635;-35.248;149.138;2022-09-09T10:36:27;10.80;98.10
39931;DHT22;26635;-35.248;149.138;2022-09-09T10:39:06;10.80;98.10
39931;DHT22;26635;-35.248;149.138;2022-09-09T10:41:56;10.80;98.10
39931;DHT22;26635;-35.248;149.138;2022-09-09T10:44:55;10.80;98.30
39931;DHT22;26635;-35.248;149.138;2022-09-09T10:50:49;10.80;98.10
39931;DHT22;26635;-35.248;149.138;2022-09-09T10:56:13;10.80;98.10
39931;DHT22;26635;-35.248;149.138;2022-09-09T11:01:28;10.80;98.00
39931;DHT22;26635;-35.248;149.138;2022-09-09T11:07:14;10.80;98.30
39931;DHT22;26635;-35.248;149.138;2022-09-09T11:09:53;10.80;98.50
39931;DHT22;26635;-35.248;149.138;2022-09-09T11:12:25;10.80;98.50
39931;DHT22;26635;-35.248;149.138;2022-09-09T11:15:08;10.80;98.40
39931;DHT22;26635;-35.248;149.138;2022-09-09T11:17:49;10.80;98.40
39931;DHT22;26635;-35.248;149.138;2022-09-09T11:20:21;10.80;98.40
39931;DHT22;26635;-35.248;149.138;2022-09-09T11:23:03;10.80;98.20
39931;DHT22;26635;-35.248;149.138;2022-09-09T11:25:45;10.80;98.30
39931;DHT22;26635;-35.248;149.138;2022-09-09T11:40:31;10.80;98.30
39931;DHT22;26635;-35.248;149.138;2022-09-09T11:43:05;10.80;98.40
39931;DHT22;26635;-35.248;149.138;2022-09-09T11:45:42;10.80;98.30
39931;DHT22;26635;-35.248;149.138;2022-09-09T11:48:45;10.80;98.30
39931;DHT22;26635;-35.248;149.138;2022-09-09T11:51:25;10.80;98.00
39931;DHT22;26635;-35.248;149.138;2022-09-09T11:56:41;10.80;98.10
39931;DHT22;26635;-35.248;149.138;2022-09-09T11:59:23;10.80;97.90
39931;DHT22;26635;-35.248;149.138;2022-09-09T12:04:38;10.80;97.90
39931;DHT22;26635;-35.248;149.138;2022-09-09T12:12:33;10.80;98.10
39931;DHT22;26635;-35.248;149.138;2022-09-09T12:17:48;10.70;98.20
39931;DHT22;26635;-35.248;149.138;2022-09-09T12:20:36;10.70;98.10
39931;DHT22;26635;-35.248;149.138;2022-09-09T12:28:50;10.70;98.60
39931;DHT22;26635;-35.248;149.138;2022-09-09T12:34:16;10.60;98.20
39931;DHT22;26635;-35.248;149.138;2022-09-09T12:36:51;10.60;98.20
39931;DHT22;26635;-35.248;149.138;2022-09-09T12:39:34;10.60;98.70
39931;DHT22;26635;-35.248;149.138;2022-09-09T12:42:20;10.70;98.70
39931;DHT22;26635;-35.248;149.138;2022-09-09T12:45:01;10.70;98.70
39931;DHT22;26635;-35.248;149.138;2022-09-09T12:47:56;10.70;98.30
39931;DHT22;26635;-35.248;149.138;2022-09-09T12:50:33;10.70;98.50
39931;DHT22;26635;-35.248;149.138;2022-09-09T12:53:07;10.60;98.40
39931;DHT22;26635;-35.248;149.138;2022-09-09T12:55:48;10.60;98.50
39931;DHT22;26635;-35.248;149.138;2022-09-09T12:58:20;10.60;98.60
39931;DHT22;26635;-35.248;149.138;2022-09-09T13:00:52;10.60;98.70
39931;DHT22;26635;-35.248;149.138;2022-09-09T13:03:26;10.60;98.40
39931;DHT22;26635;-35.248;149.138;2022-09-09T13:06:13;10.60;98.70
39931;DHT22;26635;-35.248;149.138;2022-09-09T13:08:44;10.60;98.70
39931;DHT22;26635;-35.248;149.138;2022-09-09T13:11:50;10.60;98.70
39931;DHT22;26635;-35.248;149.138;2022-09-09T13:14:30;10.50;98.80
39931;DHT22;26635;-35.248;149.138;2022-09-09T13:17:05;10.50;98.80
39931;DHT22;26635;-35.248;149.138;2022-09-09T13:19:39;10.50;98.80
39931;DHT22;26635;-35.248;149.138;2022-09-09T13:22:35;10.50;98.90
39931;DHT22;26635;-35.248;149.138;2022-09-09T13:27:39;10.50;99.10
39931;DHT22;26635;-35.248;149.138;2022-09-09T13:30:28;10.50;99.20
39931;DHT22;26635;-35.248;149.138;2022-09-09T13:33:03;10.50;99.10
39931;DHT22;26635;-35.248;149.138;2022-09-09T13:35:34;10.50;99.10
39931;DHT22;26635;-35.248;149.138;2022-09-09T13:38:09;10.50;99.00
39931;DHT22;26635;-35.248;149.138;2022-09-09T13:40:40;10.50;99.10
39931;DHT22;26635;-35.248;149.138;2022-09-09T13:43:25;10.50;99.20
39931;DHT22;26635;-35.248;149.138;2022-09-09T13:46:02;10.50;99.10
39931;DHT22;26635;-35.248;149.138;2022-09-09T13:48:32;10.50;99.10
39931;DHT22;26635;-35.248;149.138;2022-09-09T13:51:32;10.60;99.10
39931;DHT22;26635;-35.248;149.138;2022-09-09T13:53:54;10.60;99.10
39931;DHT22;26635;-35.248;149.138;2022-09-09T13:56:25;10.60;99.10
39931;DHT22;26635;-35.248;149.138;2022-09-09T13:58:55;10.60;99.20
39931;DHT22;26635;-35.248;149.138;2022-09-09T14:01:28;10.60;99.20
39931;DHT22;26635;-35.248;149.138;2022-09-09T14:03:58;10.60;99.30
39931;DHT22;26635;-35.248;149.138;2022-09-09T14:06:29;10.60;99.30
39931;DHT22;26635;-35.248;149.138;2022-09-09T14:09:02;10.60;99.60
39931;DHT22;26635;-35.248;149.138;2022-09-09T14:11:32;10.70;99.30
39931;DHT22;26635;-35.248;149.138;2022-09-09T14:14:04;10.60;99.20
39931;DHT22;26635;-35.248;149.138;2022-09-09T14:16:34;10.70;99.10
39931;DHT22;26635;-35.248;149.138;2022-09-09T14:19:05;10.70;99.10
39931;DHT22;26635;-35.248;149.138;2022-09-09T14:21:36;10.70;98.90
39931;DHT22;26635;-35.248;149.138;2022-09-09T14:24:06;10.70;98.80
39931;DHT22;26635;-35.248;149.138;2022-09-09T14:26:37;10.70;98.90
39931;DHT22;26635;-35.248;149.138;2022-09-09T14:29:07;10.70;99.00
39931;DHT22;26635;-35.248;149.138;2022-09-09T14:31:37;10.70;98.90
39931;DHT22;26635;-35.248;149.138;2022-09-09T14:34:07;10.70;98.90
39931;DHT22;26635;-35.248;149.138;2022-09-09T14:36:40;10.70;98.90
39931;DHT22;26635;-35.248;149.138;2022-09-09T14:39:11;10.70;98.90
39931;DHT22;26635;-35.248;149.138;2022-09-09T14:41:42;10.70;98.70
39931;DHT22;26635;-35.248;149.138;2022-09-09T14:44:12;10.70;98.80
39931;DHT22;26635;-35.248;149.138;2022-09-09T14:46:43;10.70;98.90
39931;DHT22;26635;-35.248;149.138;2022-09-09T14:49:13;10.70;98.90
39931;DHT22;26635;-35.248;149.138;2022-09-09T14:51:44;10.70;98.90
39931;DHT22;26635;-35.248;149.138;2022-09-09T14:54:15;10.60;98.90
39931;DHT22;26635;-35.248;149.138;2022-09-09T14:56:45;10.60;99.00
39931;DHT22;26635;-35.248;149.138;2022-09-09T14:59:17;10.60;99.00
39931;DHT22;26635;-35.248;149.138;2022-09-09T15:01:47;10.70;98.90
39931;DHT22;26635;-35.248;149.138;2022-09-09T15:04:18;10.70;98.90
39931;DHT22;26635;-35.248;149.138;2022-09-09T15:06:49;10.70;99.00
39931;DHT22;26635;-35.248;149.138;2022-09-09T15:09:21;10.70;98.80
39931;DHT22;26635;-35.248;149.138;2022-09-09T15:11:52;10.70;98.80
39931;DHT22;26635;-35.248;149.138;2022-09-09T15:14:22;10.70;98.90
39931;DHT22;26635;-35.248;149.138;2022-09-09T15:16:53;10.70;99.00
39931;DHT22;26635;-35.248;149.138;2022-09-09T15:19:23;10.70;99.00
39931;DHT22;26635;-35.248;149.138;2022-09-09T15:21:53;10.70;99.00
39931;DHT22;26635;-35.248;149.138;2022-09-09T15:24:24;10.70;99.00
39931;DHT22;26635;-35.248;149.138;2022-09-09T15:26:55;10.70;99.00
39931;DHT22;26635;-35.248;149.138;2022-09-09T15:29:26;10.80;98.90
39931;DHT22;26635;-35.248;149.138;2022-09-09T15:31:56;10.80;98.90
39931;DHT22;26635;-35.248;149.138;2022-09-09T15:34:26;10.70;98.80
39931;DHT22;26635;-35.248;149.138;2022-09-09T15:36:57;10.80;99.00
39931;DHT22;26635;-35.248;149.138;2022-09-09T15:39:29;10.70;98.90
39931;DHT22;26635;-35.248;149.138;2022-09-09T15:42:05;10.70;99.40
39931;DHT22;26635;-35.248;149.138;2022-09-09T15:44:44;10.80;98.90
39931;DHT22;26635;-35.248;149.138;2022-09-09T15:47:14;10.80;98.70
39931;DHT22;26635;-35.248;149.138;2022-09-09T15:49:45;10.80;98.60
39931;DHT22;26635;-35.248;149.138;2022-09-09T15:52:15;10.80;98.60
39931;DHT22;26635;-35.248;149.138;2022-09-09T15:54:46;10.80;98.40
39931;DHT22;26635;-35.248;149.138;2022-09-09T15:57:16;10.80;98.40
39931;DHT22;26635;-35.248;149.138;2022-09-09T15:59:46;10.70;98.50
39931;DHT22;26635;-35.248;149.138;2022-09-09T16:02:17;10.70;98.50
39931;DHT22;26635;-35.248;149.138;2022-09-09T16:04:49;10.70;98.40
39931;DHT22;26635;-35.248;149.138;2022-09-09T16:07:20;10.70;98.40
39931;DHT22;26635;-35.248;149.138;2022-09-09T16:09:51;10.70;98.50
39931;DHT22;26635;-35.248;149.138;2022-09-09T16:12:22;10.70;98.60
39931;DHT22;26635;-35.248;149.138;2022-09-09T16:14:52;10.70;98.80
39931;DHT22;26635;-35.248;149.138;2022-09-09T16:17:22;10.70;98.60
39931;DHT22;26635;-35.248;149.138;2022-09-09T16:19:52;10.70;98.40
39931;DHT22;26635;-35.248;149.138;2022-09-09T16:22:23;10.70;98.30
39931;DHT22;26635;-35.248;149.138;2022-09-09T16:24:54;10.70;98.30
39931;DHT22;26635;-35.248;149.138;2022-09-09T16:27:24;10.70;98.40
39931;DHT22;26635;-35.248;149.138;2022-09-09T16:29:55;10.70;98.50
39931;DHT22;26635;-35.248;149.138;2022-09-09T16:32:26;10.70;98.50
39931;DHT22;26635;-35.248;149.138;2022-09-09T16:34:56;10.70;98.50
39931;DHT22;26635;-35.248;149.138;2022-09-09T16:37:26;10.70;98.60
39931;DHT22;26635;-35.248;149.138;2022-09-09T16:39:57;10.70;98.70
39931;DHT22;26635;-35.248;149.138;2022-09-09T16:42:28;10.70;98.80
39931;DHT22;26635;-35.248;149.138;2022-09-09T16:45:04;10.70;98.70
39931;DHT22;26635;-35.248;149.138;2022-09-09T16:47:36;10.70;98.70
39931;DHT22;26635;-35.248;149.138;2022-09-09T16:50:06;10.60;99.20
39931;DHT22;26635;-35.248;149.138;2022-09-09T16:52:37;10.60;98.80
39931;DHT22;26635;-35.248;149.138;2022-09-09T16:55:07;10.60;98.90
39931;DHT22;26635;-35.248;149.138;2022-09-09T16:57:38;10.60;98.70
39931;DHT22;26635;-35.248;149.138;2022-09-09T17:00:09;10.60;98.80
39931;DHT22;26635;-35.248;149.138;2022-09-09T17:02:40;10.60;98.80
39931;DHT22;26635;-35.248;149.138;2022-09-09T17:05:11;10.60;98.70
39931;DHT22;26635;-35.248;149.138;2022-09-09T17:07:42;10.60;98.60
39931;DHT22;26635;-35.248;149.138;2022-09-09T17:10:13;10.60;98.60
39931;DHT22;26635;-35.248;149.138;2022-09-09T17:12:45;10.60;98.80
39931;DHT22;26635;-35.248;149.138;2022-09-09T17:15:15;10.60;98.70
39931;DHT22;26635;-35.248;149.138;2022-09-09T17:17:47;10.60;98.80
39931;DHT22;26635;-35.248;149.138;2022-09-09T17:20:22;10.60;98.80
39931;DHT22;26635;-35.248;149.138;2022-09-09T17:22:52;10.60;98.90
39931;DHT22;26635;-35.248;149.138;2022-09-09T17:25:22;10.60;98.70
39931;DHT22;26635;-35.248;149.138;2022-09-09T17:27:53;10.60;98.80
39931;DHT22;26635;-35.248;149.138;2022-09-09T17:30:24;10.60;98.80
39931;DHT22;26635;-35.248;149.138;2022-09-09T17:32:54;10.60;98.90
39931;DHT22;26635;-35.248;149.138;2022-09-09T17:35:24;10.60;99.10
39931;DHT22;26635;-35.248;149.138;2022-09-09T17:37:55;10.60;99.10
39931;DHT22;26635;-35.248;149.138;2022-09-09T17:40:25;10.60;99.10
39931;DHT22;26635;-35.248;149.138;2022-09-09T17:42:57;10.70;98.90
39931;DHT22;26635;-35.248;149.138;2022-09-09T17:45:28;10.70;98.90